Allenwood, New York
Current Conditions -  °F | °C
As of 10:51 PM on Thursday 27 Nov 2014 (Local Time) from KLGA Reporting Station
Overcast Overcast  
Wind Chill: -3°   Ceiling: 4600
Heat Index:   Visibility: 10mi
Dew Point: -3°   Wind: 15mph
Humidity: 67%   Direction: 330°NNW
Pressure: 30.06"   Gusts: NA
Location:  40.786°N, 73.7291°W
Report Text: KLGA 280351Z 33013KT 10SM OVC046 02/M03 A3006 RMK AO2 SLP178 T00221033
Loading
Personal Weather Stations






























Interactive Weather Map New forecast layout! Learn more

10-Day Weather Forecast

Advertisements
Track Severe Weather on mobile